Terminal Aerodrome Forecast
Issued by NWS Jacksonville, FL

Home | Current Version | Previous Version | Text Only | Print | Product List | Glossary On
Versions: 1 2 3 4 5 6 7 8 9 10 11 12 13 14 15 16 17 18 19 20
000
FTUS42 KJAX 120500
TAFJAX
TAF
KJAX 120534Z 1206/1306 VRB03KT P6SM FEW004 SCT025 BKN120
      TEMPO 1206/1208 5SM -RA BR
     FM121600 09006KT P6SM VCTS BKN035CB BKN250
      TEMPO 1219/1223 3SM TSRA OVC030CB
     FM130300 13002KT P6SM BKN250=

USA.gov is the U.S. government's official web portal to all federal, state and local government web resources and services.